Coburg, Germany
Current Conditions -  °F | °C
As of 6:50 PM on Sunday 23 Nov 2014 (Local Time) from EDQM Reporting Station
Haze Haze  
Wind Chill: 25°   Ceiling: Unl
Heat Index: 34°   Visibility: 2.4mi
Dew Point: 32°   Wind: 12mph
Humidity: 93%   Direction: 140°SE
Pressure: 30.18"   Gusts: NA
Location:  50.26°N, 10.97°E
Report Text: EDQM 231750Z 14010KT 3900 BR SCT004 01/00 Q1022
Loading
Personal Weather Stations






























Interactive Weather Map New forecast layout! Learn more

10-Day Weather Forecast

Advertisements
Track Severe Weather on mobile